Terminal Aerodrome Forecast
Issued by NWS

Home | Current Version | Previous Version | Text Only | Print | Product List | Glossary Off
Versions: 1 2 3 4 5 6 7 8 9 10 11 12 13 14 15 16

000
FTUS43 KBIS 312331
TAFJMS
TAF
KJMS 312331Z 0100/0124 32008KT P6SM SCT100
     FM010200 VRB04KT P6SM SKC
     FM011400 19008KT P6SM SKC
     FM012000 27010KT P6SM SKC=

USA.gov is the U.S. government's official web portal to all federal, state and local government web resources and services.